Time;durP1;ratioP1;P1;durP2;ratioP2;P2;SDS_P1;SDS_P2;PMS_P1;PMS_P2;Temp;Humidity;BMP_temperature;BMP_pressure;BME280_temperature;BME280_humidity;BME280_pressure;Samples;Min_cycle;Max_cycle;Signal;HPM_P1;HPM_P2
2022/09/16 00:00:45;;;;;;;9.00;2.40;;;17.00;93.70;;;;;;5012055;28;20279;-61
2022/09/16 00:03:12;;;;;;;8.03;2.43;;;17.10;93.70;;;;;;5010996;28;20201;-61
2022/09/16 00:05:42;;;;;;;5.33;2.13;;;17.10;93.80;;;;;;5023289;28;20189;-61
2022/09/16 00:08:09;;;;;;;5.83;2.13;;;17.10;93.70;;;;;;4997214;28;20196;-61
2022/09/16 00:10:35;;;;;;;4.23;2.17;;;17.10;93.70;;;;;;4990067;28;20197;-61
2022/09/16 00:13:01;;;;;;;6.50;2.30;;;17.00;93.50;;;;;;5025483;28;20201;-60
2022/09/16 00:15:27;;;;;;;4.33;2.13;;;17.00;93.40;;;;;;5030513;28;20195;-60
2022/09/16 00:17:53;;;;;;;7.23;2.60;;;17.00;93.60;;;;;;5006788;28;20197;-60
2022/09/16 00:20:18;;;;;;;6.77;2.70;;;17.00;93.70;;;;;;4989618;28;20209;-60
2022/09/16 00:22:44;;;;;;;3.80;2.20;;;17.00;93.70;;;;;;5014859;28;20193;-61
2022/09/16 00:25:10;;;;;;;4.87;2.93;;;17.10;93.70;;;;;;5012230;28;20254;-60
2022/09/16 00:27:35;;;;;;;6.47;2.13;;;17.00;93.60;;;;;;4987988;28;20184;-60
2022/09/16 00:30:01;;;;;;;4.23;2.07;;;17.10;93.70;;;;;;5017652;28;20185;-60
2022/09/16 00:32:27;;;;;;;2.77;2.10;;;17.10;93.70;;;;;;5028207;28;20236;-61
2022/09/16 00:34:53;;;;;;;4.40;2.00;;;17.00;93.60;;;;;;5009863;28;20208;-61
2022/09/16 00:37:19;;;;;;;3.30;2.13;;;17.10;93.60;;;;;;4988490;28;20287;-61
2022/09/16 00:39:47;;;;;;;6.43;2.43;;;17.10;93.60;;;;;;5014692;28;20192;-61
2022/09/16 00:42:14;;;;;;;5.23;2.03;;;17.10;93.60;;;;;;4993402;28;20197;-61
2022/09/16 00:44:58;;;;;;;5.33;2.00;;;17.00;93.50;;;;;;5029783;28;20197;-60
2022/09/16 00:47:26;;;;;;;9.03;3.27;;;17.00;93.50;;;;;;4990938;28;20192;-61
2022/09/16 00:49:58;;;;;;;4.93;2.00;;;17.00;93.50;;;;;;5009172;28;20228;-61
2022/09/16 00:52:25;;;;;;;2.10;1.90;;;17.00;93.50;;;;;;4985069;28;20185;-61
2022/09/16 00:54:52;;;;;;;3.17;2.00;;;17.00;93.50;;;;;;4969268;28;20192;-61
2022/09/16 00:57:18;;;;;;;5.43;2.47;;;17.00;93.60;;;;;;4987709;28;20185;-61
2022/09/16 00:59:48;;;;;;;3.87;2.17;;;17.00;93.60;;;;;;5033876;28;20193;-61
2022/09/16 01:02:17;;;;;;;5.70;2.23;;;17.00;93.50;;;;;;4993587;28;20260;-61
2022/09/16 01:05:11;;;;;;;6.70;2.67;;;17.00;93.50;;;;;;5025811;28;20258;-61
2022/09/16 01:07:49;;;;;;;6.10;2.40;;;16.90;93.50;;;;;;4979657;28;20188;-61
2022/09/16 01:10:20;;;;;;;2.50;2.30;;;17.00;93.50;;;;;;5005465;28;20244;-61
2022/09/16 01:13:03;;;;;;;4.53;2.33;;;17.00;93.50;;;;;;4980104;28;20217;-61
2022/09/16 01:15:44;;;;;;;3.97;1.90;;;16.90;93.50;;;;;;5015387;28;20188;-61
2022/09/16 01:18:38;;;;;;;2.97;2.07;;;17.00;93.50;;;;;;5014772;28;20248;-61
2022/09/16 01:21:19;;;;;;;2.87;1.87;;;17.00;93.60;;;;;;4986647;28;20331;-60
2022/09/16 01:24:08;;;;;;;4.60;2.10;;;16.90;93.40;;;;;;5014928;28;20209;-60
2022/09/16 01:26:42;;;;;;;6.07;1.80;;;16.90;93.30;;;;;;5024374;28;20234;-60
2022/09/16 01:29:26;;;;;;;6.67;1.70;;;17.00;93.30;;;;;;5016233;28;20185;-60
2022/09/16 01:32:11;;;;;;;5.73;2.00;;;17.00;93.20;;;;;;5026259;28;20196;-60
2022/09/16 01:34:42;;;;;;;6.50;2.13;;;16.90;93.10;;;;;;5024111;28;20192;-60
2022/09/16 01:37:29;;;;;;;6.27;2.27;;;16.90;93.00;;;;;;5021010;28;20188;-61
2022/09/16 01:40:18;;;;;;;4.13;2.10;;;16.90;93.00;;;;;;4981163;28;20198;-61
2022/09/16 01:43:02;;;;;;;2.23;2.03;;;16.90;93.20;;;;;;5027863;28;20200;-61
2022/09/16 01:45:54;;;;;;;1.70;1.60;;;16.90;93.10;;;;;;4992464;28;20242;-61
2022/09/16 01:48:36;;;;;;;2.53;1.93;;;16.90;93.10;;;;;;5018021;28;20246;-61
2022/09/16 01:51:07;;;;;;;4.47;1.97;;;16.80;93.10;;;;;;5009660;28;20207;-61
2022/09/16 01:53:45;;;;;;;2.97;2.10;;;16.80;93.00;;;;;;4980208;28;20204;-59
2022/09/16 01:56:32;;;;;;;2.97;2.03;;;16.80;93.10;;;;;;5020196;28;20189;-59
2022/09/16 01:59:10;;;;;;;3.90;2.00;;;16.80;93.10;;;;;;4993883;28;20251;-59
2022/09/16 02:01:46;;;;;;;2.97;2.23;;;16.80;93.10;;;;;;5002692;28;20230;-59
2022/09/16 02:04:23;;;;;;;5.20;2.00;;;16.80;93.20;;;;;;5022619;28;20188;-62
2022/09/16 02:06:52;;;;;;;2.97;2.00;;;16.80;93.10;;;;;;5015741;28;20190;-60
2022/09/16 02:09:24;;;;;;;3.93;1.70;;;16.80;93.10;;;;;;5004756;28;20201;-60
2022/09/16 02:11:53;;;;;;;2.40;2.20;;;16.80;93.10;;;;;;5025224;28;20200;-60
2022/09/16 02:14:29;;;;;;;9.37;2.30;;;16.80;93.10;;;;;;5011982;28;20193;-60
2022/09/16 02:17:04;;;;;;;7.60;2.07;;;16.80;92.90;;;;;;5011063;28;20235;-60
2022/09/16 02:19:38;;;;;;;3.00;2.00;;;16.80;93.00;;;;;;5020073;28;20189;-60
2022/09/16 02:22:13;;;;;;;3.03;1.73;;;16.80;93.00;;;;;;5008458;28;21014;-60
2022/09/16 02:24:42;;;;;;;2.67;1.80;;;16.80;93.00;;;;;;4987246;28;20193;-60
2022/09/16 02:27:12;;;;;;;4.20;1.73;;;16.80;93.10;;;;;;4991602;28;20196;-61
2022/09/16 02:29:45;;;;;;;2.90;2.20;;;16.80;93.00;;;;;;5009341;28;20197;-61
2022/09/16 02:32:13;;;;;;;4.57;2.10;;;16.80;93.00;;;;;;4987174;28;20252;-61
2022/09/16 02:34:50;;;;;;;2.43;1.63;;;16.70;92.90;;;;;;5024450;28;20199;-61
2022/09/16 02:37:28;;;;;;;3.77;2.03;;;16.70;93.10;;;;;;5019928;28;20197;-61
2022/09/16 02:40:00;;;;;;;5.20;2.10;;;16.70;93.10;;;;;;5009878;28;20184;-61
2022/09/16 02:42:29;;;;;;;4.43;1.90;;;16.70;93.10;;;;;;5018648;28;20229;-60
2022/09/16 02:44:56;;;;;;;2.60;1.87;;;16.70;93.10;;;;;;4997565;28;20194;-61
2022/09/16 02:47:37;;;;;;;4.83;1.90;;;16.70;92.90;;;;;;4994349;28;20200;-60
2022/09/16 02:50:17;;;;;;;2.83;1.80;;;16.70;92.80;;;;;;4989135;28;20199;-61
2022/09/16 02:52:58;;;;;;;4.30;1.87;;;16.70;92.80;;;;;;5013564;28;20200;-61
2022/09/16 02:55:41;;;;;;;7.60;1.90;;;16.70;92.80;;;;;;4982417;28;20189;-60
2022/09/16 02:58:08;;;;;;;4.13;1.90;;;16.60;92.80;;;;;;5016433;28;20189;-61
2022/09/16 03:00:40;;;;;;;3.17;1.83;;;16.70;92.80;;;;;;5009378;28;20244;-61
2022/09/16 03:03:05;;;;;;;2.37;1.63;;;16.70;92.70;;;;;;5030946;28;20192;-61
2022/09/16 03:05:31;;;;;;;6.10;1.60;;;16.60;92.80;;;;;;4964045;28;20291;-60
2022/09/16 03:07:57;;;;;;;3.70;1.77;;;16.60;92.80;;;;;;5003830;28;20251;-60
2022/09/16 03:10:28;;;;;;;5.50;2.00;;;16.50;92.50;;;;;;5007282;28;20252;-60
2022/09/16 03:13:23;;;;;;;8.70;1.80;;;16.50;92.70;;;;;;5023778;28;20200;-60
2022/09/16 03:16:03;;;;;;;3.30;1.80;;;16.60;93.10;;;;;;4996820;28;20327;-60
2022/09/16 03:18:55;;;;;;;3.00;2.30;;;16.60;93.00;;;;;;5016273;28;20192;-60
2022/09/16 03:21:55;;;;;;;3.73;1.77;;;16.60;92.90;;;;;;4983084;28;20216;-60
2022/09/16 03:24:53;;;;;;;5.33;2.30;;;16.60;92.90;;;;;;5022345;28;20336;-60
2022/09/16 03:27:31;;;;;;;4.97;1.67;;;16.70;92.90;;;;;;5023768;28;20203;-61
2022/09/16 03:30:04;;;;;;;1.80;1.70;;;16.70;92.70;;;;;;4976647;28;20192;-61
2022/09/16 03:32:37;;;;;;;3.40;1.60;;;16.60;92.70;;;;;;5006480;28;20268;-60
2022/09/16 03:35:12;;;;;;;4.90;1.90;;;16.60;92.70;;;;;;5025154;28;20204;-60
2022/09/16 03:37:39;;;;;;;3.73;1.70;;;16.60;92.80;;;;;;5008804;28;20193;-60
2022/09/16 03:40:11;;;;;;;2.13;1.53;;;16.60;92.70;;;;;;5025412;28;20193;-60
2022/09/16 03:42:42;;;;;;;4.60;1.80;;;16.60;92.70;;;;;;5013113;28;20192;-60
2022/09/16 03:45:13;;;;;;;4.30;2.07;;;16.70;92.70;;;;;;4995844;28;20218;-60
2022/09/16 03:47:39;;;;;;;3.93;1.63;;;16.70;92.70;;;;;;5019057;28;20197;-61
2022/09/16 03:50:05;;;;;;;4.87;2.30;;;16.60;92.70;;;;;;5011529;28;20328;-61
2022/09/16 03:52:30;;;;;;;17.07;4.23;;;16.60;92.70;;;;;;4997269;28;20205;-60
2022/09/16 03:54:56;;;;;;;42.03;7.70;;;16.60;93.70;;;;;;4974323;28;20189;-62
2022/09/16 03:57:22;;;;;;;11.80;4.10;;;16.30;95.10;;;;;;4986275;28;20283;-63
2022/09/16 03:59:47;;;;;;;16.33;4.23;;;16.30;95.80;;;;;;5012896;28;20201;-63
2022/09/16 04:02:13;;;;;;;9.87;3.70;;;16.30;96.20;;;;;;5009926;28;20224;-62
2022/09/16 04:04:39;;;;;;;13.43;3.67;;;16.20;96.50;;;;;;5024254;28;20189;-62
2022/09/16 04:07:04;;;;;;;14.83;3.77;;;16.20;96.60;;;;;;4992891;28;20189;-62
2022/09/16 04:09:30;;;;;;;7.10;3.63;;;16.30;96.70;;;;;;4990810;28;20192;-62
2022/09/16 04:11:56;;;;;;;14.23;4.13;;;16.30;96.80;;;;;;5027793;28;20202;-62
2022/09/16 04:14:21;;;;;;;8.33;3.37;;;16.30;96.90;;;;;;4999219;28;20287;-62
2022/09/16 04:16:47;;;;;;;7.07;2.80;;;16.30;97.00;;;;;;5005552;28;20287;-62
2022/09/16 04:19:13;;;;;;;11.83;3.67;;;16.20;97.00;;;;;;5017330;28;20196;-61
2022/09/16 04:21:40;;;;;;;6.63;3.47;;;16.20;97.00;;;;;;5006762;28;20220;-61
2022/09/16 04:24:07;;;;;;;14.27;4.50;;;16.20;97.00;;;;;;5015284;28;20194;-60
2022/09/16 04:26:32;;;;;;;16.00;5.20;;;16.20;97.10;;;;;;4986191;28;20192;-60
2022/09/16 04:28:58;;;;;;;14.77;5.63;;;16.20;97.10;;;;;;5018883;28;20243;-59
2022/09/16 04:31:24;;;;;;;32.07;6.20;;;16.30;97.20;;;;;;4975975;28;20197;-59
2022/09/16 04:33:49;;;;;;;33.77;7.67;;;16.30;97.20;;;;;;4978814;28;20237;-60
2022/09/16 04:36:18;;;;;;;22.90;6.53;;;16.20;97.10;;;;;;5022756;28;20202;-59
2022/09/16 04:38:46;;;;;;;13.37;5.33;;;16.20;97.20;;;;;;5020074;28;20195;-59
2022/09/16 04:41:18;;;;;;;16.97;5.73;;;16.10;97.30;;;;;;4976628;28;20221;-59
2022/09/16 04:43:43;;;;;;;88.37;13.00;;;16.00;97.30;;;;;;4985621;28;20199;-61
2022/09/16 04:46:10;;;;;;;62.17;14.07;;;15.90;97.30;;;;;;4978838;28;20201;-60
2022/09/16 04:48:36;;;;;;;25.90;7.77;;;15.80;97.30;;;;;;4978202;28;20209;-60
2022/09/16 04:51:08;;;;;;;7.60;4.80;;;15.90;97.50;;;;;;4977382;28;20201;-60
2022/09/16 04:53:35;;;;;;;8.97;4.60;;;15.90;97.60;;;;;;5008619;28;20293;-59
2022/09/16 04:56:13;;;;;;;7.10;4.20;;;15.90;97.60;;;;;;5010919;28;20192;-59
2022/09/16 04:58:39;;;;;;;7.90;4.57;;;15.90;97.60;;;;;;5016720;28;20202;-59
2022/09/16 05:01:06;;;;;;;7.30;4.00;;;15.90;97.60;;;;;;4977349;28;20225;-59
2022/09/16 05:03:32;;;;;;;8.30;4.57;;;15.90;97.60;;;;;;4984660;28;20196;-59
2022/09/16 05:06:06;;;;;;;7.53;4.80;;;15.90;97.70;;;;;;5028206;28;20220;-59
2022/09/16 05:08:34;;;;;;;18.60;5.80;;;15.90;97.70;;;;;;4982245;28;20217;-59
2022/09/16 05:11:11;;;;;;;18.00;5.83;;;16.00;97.70;;;;;;4996504;28;20211;-59
2022/09/16 05:13:38;;;;;;;6.97;4.20;;;16.00;97.70;;;;;;4984700;28;20224;-59
2022/09/16 05:16:16;;;;;;;10.37;5.23;;;16.00;97.70;;;;;;5015905;28;20193;-59
2022/09/16 05:18:44;;;;;;;13.20;4.20;;;16.00;97.70;;;;;;4975466;28;20200;-59
2022/09/16 05:21:13;;;;;;;8.60;4.13;;;16.00;97.70;;;;;;5019603;28;20209;-59
2022/09/16 05:23:39;;;;;;;5.03;3.77;;;16.00;97.70;;;;;;4977275;28;20337;-59
2022/09/16 05:26:20;;;;;;;9.03;4.10;;;16.00;97.70;;;;;;4990557;28;20189;-59
2022/09/16 05:28:46;;;;;;;7.33;4.67;;;16.00;97.70;;;;;;4987987;28;20196;-59
2022/09/16 05:31:25;;;;;;;9.20;4.53;;;16.00;97.70;;;;;;4977563;28;20199;-59
2022/09/16 05:33:59;;;;;;;7.07;3.53;;;16.00;97.70;;;;;;5024089;28;20244;-59
2022/09/16 05:36:27;;;;;;;11.27;5.20;;;16.00;97.70;;;;;;5016434;28;20188;-59
2022/09/16 05:38:53;;;;;;;58.60;9.77;;;16.00;97.70;;;;;;4979669;28;20252;-59
2022/09/16 05:41:18;;;;;;;21.20;6.50;;;16.00;97.70;;;;;;4998240;28;20221;-59
2022/09/16 05:43:44;;;;;;;20.50;6.63;;;16.00;97.70;;;;;;5002610;28;20276;-59
2022/09/16 05:46:17;;;;;;;9.43;4.43;;;16.00;97.70;;;;;;5009824;28;20217;-59
2022/09/16 05:48:43;;;;;;;7.57;4.50;;;16.00;97.80;;;;;;5023186;28;20188;-59
2022/09/16 05:51:09;;;;;;;13.20;4.63;;;16.00;97.80;;;;;;5013811;28;20219;-59
2022/09/16 05:53:35;;;;;;;13.07;4.60;;;15.80;97.70;;;;;;4998683;28;20288;-59
2022/09/16 05:56:04;;;;;;;13.03;4.30;;;15.80;97.70;;;;;;4976117;28;20280;-59
2022/09/16 05:58:30;;;;;;;5.90;3.77;;;15.80;97.70;;;;;;4974136;28;20271;-59
2022/09/16 06:01:12;;;;;;;4.60;3.30;;;15.80;97.80;;;;;;5014095;28;20220;-59
2022/09/16 06:03:40;;;;;;;4.93;3.10;;;15.80;97.70;;;;;;4992769;28;20185;-59
2022/09/16 06:06:27;;;;;;;5.00;3.77;;;15.80;97.80;;;;;;4980319;28;20189;-59
2022/09/16 06:08:55;;;;;;;9.67;3.53;;;15.80;97.80;;;;;;5022262;28;20250;-59
2022/09/16 06:11:21;;;;;;;8.47;3.90;;;15.90;97.80;;;;;;4982438;28;20189;-59
2022/09/16 06:13:51;;;;;;;6.53;3.60;;;15.90;97.80;;;;;;4986684;28;20196;-59
2022/09/16 06:16:17;;;;;;;6.30;3.87;;;15.90;97.80;;;;;;4990040;28;20192;-59
2022/09/16 06:18:42;;;;;;;8.00;3.77;;;15.90;97.80;;;;;;5023784;28;20196;-59
2022/09/16 06:21:10;;;;;;;10.40;4.97;;;15.80;97.80;;;;;;5002132;28;20219;-59
2022/09/16 06:23:38;;;;;;;6.57;4.30;;;15.90;97.80;;;;;;4980010;28;20235;-59
2022/09/16 06:26:07;;;;;;;8.77;4.47;;;15.90;97.80;;;;;;5017653;28;20181;-59
2022/09/16 06:28:33;;;;;;;10.67;5.40;;;15.90;97.80;;;;;;5015320;28;20184;-59
2022/09/16 06:31:01;;;;;;;6.97;4.60;;;16.00;97.90;;;;;;4993125;28;20193;-59
2022/09/16 06:33:27;;;;;;;8.30;4.93;;;15.90;97.80;;;;;;5017687;28;20236;-59
2022/09/16 06:35:53;;;;;;;9.47;5.27;;;15.90;97.90;;;;;;5007217;28;20200;-59
2022/09/16 06:38:19;;;;;;;6.70;4.33;;;15.90;97.90;;;;;;5025488;28;20185;-59
2022/09/16 06:40:44;;;;;;;4.40;4.00;;;16.00;97.90;;;;;;4969275;28;20220;-59
2022/09/16 06:43:10;;;;;;;8.10;4.13;;;16.00;97.90;;;;;;4997476;28;20180;-59
2022/09/16 06:45:35;;;;;;;6.10;3.63;;;16.00;97.80;;;;;;4990647;28;20193;-59
2022/09/16 06:48:01;;;;;;;5.70;3.80;;;15.90;97.90;;;;;;4998391;28;20197;-59
2022/09/16 06:50:27;;;;;;;7.47;4.20;;;15.90;97.90;;;;;;4985280;28;20197;-59
2022/09/16 06:52:52;;;;;;;6.47;3.83;;;15.90;97.90;;;;;;4989693;28;20277;-59
2022/09/16 06:55:18;;;;;;;5.33;4.20;;;16.00;97.90;;;;;;5017212;28;20278;-59
2022/09/16 06:57:44;;;;;;;4.63;4.17;;;16.00;97.90;;;;;;4994033;28;20188;-59
2022/09/16 07:00:11;;;;;;;5.33;4.60;;;16.00;97.90;;;;;;5006213;28;20220;-59
2022/09/16 07:02:37;;;;;;;5.70;5.10;;;16.00;97.90;;;;;;5007615;28;20186;-59
2022/09/16 07:05:02;;;;;;;13.37;6.03;;;16.10;97.90;;;;;;5011691;28;20188;-59
2022/09/16 07:07:32;;;;;;;8.93;6.27;;;16.10;97.90;;;;;;5023957;28;20204;-59
2022/09/16 07:09:58;;;;;;;6.67;5.83;;;16.00;97.90;;;;;;4986335;28;20189;-59
2022/09/16 07:12:24;;;;;;;8.87;6.70;;;16.10;97.90;;;;;;5019718;28;20191;-59
2022/09/16 07:14:49;;;;;;;7.87;5.90;;;16.10;97.90;;;;;;5001808;28;20197;-59
2022/09/16 07:17:15;;;;;;;6.30;5.37;;;16.00;97.90;;;;;;4987313;28;20224;-59
2022/09/16 07:19:41;;;;;;;6.70;5.43;;;16.00;97.90;;;;;;5018313;28;20190;-59
2022/09/16 07:22:07;;;;;;;8.10;5.77;;;15.90;97.90;;;;;;5023996;28;20225;-59
2022/09/16 07:24:32;;;;;;;9.77;5.30;;;15.90;97.90;;;;;;4959782;28;20287;-59
2022/09/16 07:26:58;;;;;;;7.50;5.60;;;15.90;97.90;;;;;;5018042;28;20207;-59
2022/09/16 07:29:24;;;;;;;11.00;6.33;;;16.00;97.90;;;;;;5024480;28;20189;-59
2022/09/16 07:31:50;;;;;;;6.70;6.00;;;15.90;97.90;;;;;;5001523;28;20252;-59
2022/09/16 07:34:15;;;;;;;6.83;5.63;;;16.00;97.90;;;;;;4994542;28;20204;-59
2022/09/16 07:36:45;;;;;;;9.17;5.27;;;16.00;97.90;;;;;;5007158;28;20189;-59
2022/09/16 07:39:13;;;;;;;6.60;5.47;;;16.00;97.90;;;;;;5013217;28;20260;-59
2022/09/16 07:41:43;;;;;;;11.47;5.63;;;15.90;97.90;;;;;;5005197;28;20224;-59
2022/09/16 07:44:14;;;;;;;11.33;6.43;;;16.00;97.90;;;;;;4971403;28;20190;-59
2022/09/16 07:46:40;;;;;;;7.57;5.77;;;15.90;97.90;;;;;;4976327;28;20264;-59
2022/09/16 07:49:07;;;;;;;9.37;5.60;;;15.80;97.90;;;;;;5017187;28;20192;-59
2022/09/16 07:51:33;;;;;;;7.43;4.10;;;15.80;97.90;;;;;;4989400;28;20215;-59
2022/09/16 07:54:07;;;;;;;5.43;4.53;;;15.70;97.90;;;;;;5017950;28;20242;-59
2022/09/16 07:56:37;;;;;;;6.77;5.00;;;15.70;97.90;;;;;;4987502;28;20193;-59
2022/09/16 07:59:05;;;;;;;5.07;4.53;;;15.80;97.90;;;;;;4975638;28;20220;-59
2022/09/16 08:01:30;;;;;;;4.80;4.17;;;15.80;97.90;;;;;;5007024;28;20209;-59
2022/09/16 08:03:57;;;;;;;4.47;4.07;;;15.80;97.90;;;;;;5034181;28;20195;-59
2022/09/16 08:06:26;;;;;;;10.03;5.47;;;15.80;97.90;;;;;;5006759;28;20292;-59
2022/09/16 08:08:53;;;;;;;6.33;4.13;;;15.80;97.90;;;;;;4991116;28;20182;-59
2022/09/16 08:11:19;;;;;;;5.00;4.47;;;15.80;97.90;;;;;;5004928;28;20193;-59
2022/09/16 08:13:45;;;;;;;5.10;3.80;;;15.70;98.00;;;;;;5014356;28;20265;-59
2022/09/16 08:16:16;;;;;;;6.33;4.90;;;15.70;98.00;;;;;;5025193;28;20219;-59
2022/09/16 08:18:42;;;;;;;5.33;4.83;;;15.60;97.90;;;;;;5027056;28;20254;-59
2022/09/16 08:21:13;;;;;;;6.47;5.67;;;15.60;97.90;;;;;;5027457;28;20212;-59
2022/09/16 08:23:39;;;;;;;6.47;5.60;;;15.50;97.90;;;;;;5012925;28;20185;-59
2022/09/16 08:26:12;;;;;;;8.47;6.13;;;15.60;98.00;;;;;;4987715;28;20185;-59
2022/09/16 08:28:40;;;;;;;7.57;6.73;;;15.60;98.00;;;;;;4986636;28;20181;-59
2022/09/16 08:31:07;;;;;;;8.23;6.90;;;15.60;97.90;;;;;;4991818;28;20196;-59
2022/09/16 08:33:33;;;;;;;6.30;5.70;;;15.60;98.00;;;;;;5004096;28;20243;-59
2022/09/16 08:36:00;;;;;;;8.60;7.07;;;15.60;97.90;;;;;;5021304;28;20193;-59
2022/09/16 08:38:26;;;;;;;8.63;6.07;;;15.60;98.00;;;;;;5007876;28;20288;-59
2022/09/16 08:41:16;;;;;;;7.30;5.90;;;15.70;98.00;;;;;;5008047;28;20213;-59
2022/09/16 08:44:00;;;;;;;7.67;5.80;;;15.60;98.00;;;;;;5026411;28;20202;-59
2022/09/16 08:46:49;;;;;;;9.33;6.17;;;15.60;97.90;;;;;;5022170;28;20189;-59
2022/09/16 08:49:15;;;;;;;8.10;6.10;;;15.50;98.00;;;;;;4997085;28;20194;-59
2022/09/16 08:51:41;;;;;;;11.00;6.83;;;15.40;98.00;;;;;;5014157;28;20190;-59
2022/09/16 08:54:17;;;;;;;7.47;6.03;;;15.50;98.00;;;;;;4991332;28;20251;-59
2022/09/16 08:56:45;;;;;;;6.90;5.20;;;15.40;98.00;;;;;;4993671;28;20192;-59
2022/09/16 08:59:17;;;;;;;7.17;4.83;;;15.30;97.90;;;;;;5024886;28;20188;-59
2022/09/16 09:01:58;;;;;;;8.57;5.73;;;15.30;98.00;;;;;;5019948;28;20228;-59
2022/09/16 09:04:25;;;;;;;7.37;5.47;;;15.20;97.90;;;;;;5021472;28;20303;-59
2022/09/16 09:07:10;;;;;;;7.70;5.60;;;15.30;98.00;;;;;;5012315;28;20190;-59
2022/09/16 09:09:47;;;;;;;6.03;5.20;;;15.30;98.00;;;;;;5025791;28;20279;-59
2022/09/16 09:13:00;;;;;;;11.47;5.40;;;15.20;97.90;;;;;;5017122;28;20422;-59
2022/09/16 09:15:35;;;;;;;6.83;5.50;;;15.10;97.90;;;;;;5022702;28;20183;-59
2022/09/16 09:19:03;;;;;;;7.37;6.33;;;15.20;98.00;;;;;;5029752;28;20195;-59
2022/09/16 09:21:34;;;;;;;5.97;4.70;;;15.20;98.00;;;;;;4922536;29;20226;-59
2022/09/16 09:24:29;;;;;;;5.97;5.37;;;15.20;98.00;;;;;;5009234;28;20197;-59
2022/09/16 09:27:22;;;;;;;9.13;6.27;;;15.30;98.00;;;;;;5025377;28;20189;-59
2022/09/16 09:30:13;;;;;;;7.53;5.60;;;15.30;98.00;;;;;;5007002;28;20190;-59
2022/09/16 09:33:10;;;;;;;9.30;6.10;;;15.30;98.00;;;;;;4993393;28;20263;-59
2022/09/16 09:35:55;;;;;;;6.37;5.20;;;15.30;98.00;;;;;;5025303;28;20192;-59
2022/09/16 09:38:51;;;;;;;6.07;5.50;;;15.30;98.00;;;;;;5013109;28;20228;-59
2022/09/16 09:41:28;;;;;;;6.40;5.80;;;15.20;98.00;;;;;;5013605;28;20205;-59
2022/09/16 09:44:33;;;;;;;6.70;5.47;;;15.30;98.00;;;;;;4990938;28;20204;-59
2022/09/16 09:47:04;;;;;;;5.57;5.07;;;15.20;98.00;;;;;;5023976;28;20224;-59
2022/09/16 09:49:38;;;;;;;7.33;5.43;;;15.20;98.00;;;;;;5015299;28;20193;-59
2022/09/16 09:52:06;;;;;;;9.00;6.23;;;15.20;98.00;;;;;;5015165;28;20263;-59
2022/09/16 09:54:35;;;;;;;9.47;6.20;;;15.20;98.00;;;;;;5023324;28;20188;-59
2022/09/16 09:57:13;;;;;;;7.77;5.20;;;15.30;98.00;;;;;;4972430;28;20194;-59
2022/09/16 10:00:06;;;;;;;7.57;4.87;;;15.30;98.00;;;;;;4987814;28;20204;-59
2022/09/16 10:02:33;;;;;;;7.30;4.80;;;15.30;98.00;;;;;;4988501;28;20185;-59
2022/09/16 10:04:59;;;;;;;5.37;4.70;;;15.10;98.00;;;;;;4992128;28;20180;-59
2022/09/16 10:07:27;;;;;;;8.53;5.03;;;15.10;98.00;;;;;;4989143;28;20202;-59
2022/09/16 10:10:02;;;;;;;9.03;5.43;;;15.10;98.00;;;;;;5003254;28;20197;-59
2022/09/16 10:12:30;;;;;;;6.13;5.03;;;15.10;98.00;;;;;;5021808;28;20214;-59
2022/09/16 10:14:57;;;;;;;7.77;5.10;;;15.20;98.00;;;;;;5016725;28;20189;-59
2022/09/16 10:17:23;;;;;;;8.07;5.23;;;15.10;98.00;;;;;;4976481;28;20221;-59
2022/09/16 10:20:00;;;;;;;12.80;5.10;;;15.10;98.00;;;;;;5003109;28;20200;-59
2022/09/16 10:22:31;;;;;;;21.40;7.63;;;15.10;98.00;;;;;;5020391;28;20294;-60
2022/09/16 10:25:02;;;;;;;28.20;6.93;;;15.00;98.00;;;;;;5018081;28;20192;-60
2022/09/16 10:27:34;;;;;;;37.97;9.97;;;15.00;97.90;;;;;;5018793;28;20224;-60
2022/09/16 10:30:06;;;;;;;21.40;6.27;;;15.00;97.90;;;;;;5009961;28;20213;-60
2022/09/16 10:32:49;;;;;;;20.23;5.93;;;15.00;97.90;;;;;;5021529;28;20260;-60
2022/09/16 10:35:20;;;;;;;9.97;4.70;;;14.90;97.90;;;;;;5012604;28;20187;-60
2022/09/16 10:37:52;;;;;;;8.50;4.60;;;14.80;97.90;;;;;;5024841;28;20242;-60
2022/09/16 10:40:18;;;;;;;6.37;4.60;;;14.80;97.90;;;;;;5023268;28;20267;-60
2022/09/16 10:42:47;;;;;;;5.53;4.43;;;14.80;97.90;;;;;;5002335;28;20197;-60
2022/09/16 10:45:16;;;;;;;6.27;4.77;;;14.80;97.90;;;;;;5017338;28;20192;-60
2022/09/16 10:47:48;;;;;;;10.27;5.90;;;14.80;98.00;;;;;;5016028;28;20184;-59
2022/09/16 10:50:17;;;;;;;22.03;8.53;;;14.80;98.00;;;;;;5011316;28;20185;-59
2022/09/16 10:52:45;;;;;;;8.63;6.13;;;14.80;98.00;;;;;;5008666;28;20196;-59
2022/09/16 10:55:24;;;;;;;12.30;7.27;;;14.80;98.00;;;;;;4976709;28;20197;-59
2022/09/16 10:57:50;;;;;;;10.73;7.03;;;14.80;98.00;;;;;;4977624;28;20188;-59
2022/09/16 11:00:26;;;;;;;10.37;6.67;;;14.80;98.00;;;;;;4972258;28;20189;-59
2022/09/16 11:03:29;;;;;;;6.33;5.43;;;14.80;98.00;;;;;;4992313;28;20278;-59
2022/09/16 11:06:06;;;;;;;15.37;7.60;;;14.80;98.00;;;;;;5007640;28;20293;-59
2022/09/16 11:08:38;;;;;;;9.70;7.40;;;14.80;98.00;;;;;;5017666;28;20231;-59
2022/09/16 11:11:12;;;;;;;11.63;8.40;;;14.80;98.00;;;;;;5018346;28;20204;-59
2022/09/16 11:14:03;;;;;;;10.57;8.20;;;14.80;98.00;;;;;;5025496;28;20287;-61
2022/09/16 11:16:59;;;;;;;10.53;8.77;;;14.90;98.00;;;;;;5013098;28;20204;-60
2022/09/16 11:19:54;;;;;;;9.53;7.87;;;14.90;98.10;;;;;;5017005;28;20287;-60
2022/09/16 11:22:52;;;;;;;9.43;8.43;;;15.00;98.10;;;;;;4981820;28;20314;-60
2022/09/16 11:25:24;;;;;;;11.33;8.13;;;15.00;98.10;;;;;;5007483;28;20204;-61
2022/09/16 11:28:18;;;;;;;9.50;8.03;;;14.90;98.10;;;;;;5016999;28;20197;-61
2022/09/16 11:30:58;;;;;;;11.37;6.60;;;14.90;98.00;;;;;;4989459;28;20204;-60
2022/09/16 11:33:31;;;;;;;7.13;6.43;;;14.70;98.00;;;;;;4974361;28;20275;-61
2022/09/16 11:36:10;;;;;;;12.20;8.10;;;14.70;98.10;;;;;;4977376;28;20191;-61
2022/09/16 11:39:00;;;;;;;7.50;6.80;;;14.70;98.10;;;;;;5019621;28;20200;-60
2022/09/16 11:41:47;;;;;;;9.83;7.37;;;14.80;98.10;;;;;;4989072;28;20208;-61
2022/09/16 11:44:40;;;;;;;10.93;7.93;;;14.80;98.10;;;;;;5013661;28;20216;-60
2022/09/16 11:47:14;;;;;;;10.03;6.93;;;14.90;98.10;;;;;;4986531;28;20287;-60
2022/09/16 11:49:43;;;;;;;8.20;6.90;;;14.90;98.10;;;;;;4994335;28;20214;-60
2022/09/16 11:52:47;;;;;;;9.80;7.87;;;14.90;98.10;;;;;;4988099;28;20277;-60
2022/09/16 11:55:26;;;;;;;9.33;7.30;;;14.90;98.10;;;;;;4995932;28;20250;-60
2022/09/16 11:57:57;;;;;;;9.33;6.87;;;14.80;98.10;;;;;;5019672;28;20187;-60
2022/09/16 12:00:23;;;;;;;8.97;7.30;;;14.80;98.10;;;;;;4995307;28;20196;-60
2022/09/16 12:02:59;;;;;;;8.43;7.07;;;14.80;98.10;;;;;;4977917;28;20207;-61
2022/09/16 12:05:37;;;;;;;7.07;6.30;;;14.80;98.10;;;;;;5010200;28;20200;-60
2022/09/16 12:08:21;;;;;;;8.50;7.47;;;14.70;98.10;;;;;;5016612;28;20197;-59
2022/09/16 12:10:51;;;;;;;8.87;6.77;;;14.70;98.10;;;;;;4984973;28;20227;-60
2022/09/16 12:13:43;;;;;;;8.03;6.87;;;14.80;98.10;;;;;;4981575;28;20212;-60
2022/09/16 12:16:16;;;;;;;8.17;6.23;;;14.80;98.10;;;;;;4989837;28;20205;-62
2022/09/16 12:18:52;;;;;;;7.30;6.60;;;14.80;98.10;;;;;;5010466;28;20190;-60
2022/09/16 12:21:41;;;;;;;6.50;5.90;;;14.80;98.10;;;;;;5019407;28;20267;-61
2022/09/16 12:24:23;;;;;;;6.87;6.27;;;14.70;98.10;;;;;;5003163;28;20221;-61
2022/09/16 12:27:22;;;;;;;7.33;6.63;;;14.70;98.10;;;;;;5013785;28;20192;-61
2022/09/16 12:30:15;;;;;;;9.93;6.33;;;14.70;98.10;;;;;;4984961;28;20197;-62
2022/09/16 12:32:53;;;;;;;8.77;7.27;;;14.70;98.10;;;;;;4993579;28;20263;-61
2022/09/16 12:35:28;;;;;;;10.83;8.13;;;14.60;98.10;;;;;;5013713;28;20216;-61
2022/09/16 12:37:54;;;;;;;8.43;7.63;;;14.60;98.10;;;;;;5016079;28;20220;-62
2022/09/16 12:40:23;;;;;;;8.63;7.50;;;14.60;98.10;;;;;;4974634;28;20220;-62
2022/09/16 12:43:04;;;;;;;10.57;8.07;;;14.40;98.00;;;;;;5017441;28;20191;-62
2022/09/16 12:45:30;;;;;;;12.93;8.87;;;14.50;98.10;;;;;;5019773;28;20196;-62
2022/09/16 12:48:30;;;;;;;11.10;7.60;;;14.50;98.10;;;;;;5018952;28;20262;-62
2022/09/16 12:51:27;;;;;;;12.97;8.90;;;14.60;98.10;;;;;;5014903;28;20192;-62
2022/09/16 12:54:25;;;;;;;14.60;8.07;;;14.70;98.10;;;;;;5010482;28;20189;-62
2022/09/16 12:57:12;;;;;;;10.27;7.17;;;14.80;98.10;;;;;;5014316;28;20197;-61
2022/09/16 12:59:51;;;;;;;7.23;6.60;;;14.70;98.10;;;;;;4977728;28;20197;-61
2022/09/16 13:02:20;;;;;;;8.93;7.13;;;14.70;98.10;;;;;;5017011;28;20319;-62
2022/09/16 13:04:56;;;;;;;9.27;7.63;;;14.70;98.10;;;;;;4985814;28;20192;-61
2022/09/16 13:07:33;;;;;;;10.27;7.10;;;14.70;98.10;;;;;;4985994;28;20191;-61
2022/09/16 13:10:13;;;;;;;8.07;6.67;;;14.70;98.10;;;;;;5015424;28;20199;-61
2022/09/16 13:12:39;;;;;;;8.87;6.80;;;14.80;98.10;;;;;;5018783;28;20397;-61
2022/09/16 13:15:06;;;;;;;7.80;7.00;;;14.80;98.10;;;;;;5017842;28;20200;-61
2022/09/16 13:17:37;;;;;;;9.70;6.83;;;14.80;98.10;;;;;;5000833;28;20208;-61